createdAt,value
2022-11-10T00:00:55.399Z,100247.00
2022-11-10T00:04:00.798Z,100258.22
2022-11-10T00:07:09.398Z,100229.66
2022-11-10T00:10:15.230Z,100246.84
2022-11-10T00:13:23.900Z,100221.09
2022-11-10T00:16:29.040Z,100254.72
2022-11-10T00:19:34.423Z,100260.84
2022-11-10T00:22:40.274Z,100241.03
2022-11-10T00:25:46.348Z,100266.06
2022-11-10T00:28:52.199Z,100267.78
2022-11-10T00:31:58.694Z,100265.13
2022-11-10T00:35:04.375Z,100262.47
2022-11-10T00:38:10.172Z,100254.72
2022-11-10T00:41:15.415Z,100272.97
2022-11-10T00:44:20.923Z,100261.63
2022-11-10T00:47:26.567Z,100260.72
2022-11-10T00:50:32.643Z,100266.78
2022-11-10T00:53:38.591Z,100249.28
2022-11-10T00:56:44.542Z,100253.75
2022-11-10T00:59:49.899Z,100256.31
2022-11-10T01:02:55.106Z,100263.28
2022-11-10T01:06:00.556Z,100270.22
2022-11-10T01:09:06.399Z,100266.78
2022-11-10T01:12:11.903Z,100269.31
2022-11-10T01:15:17.144Z,100264.91
2022-11-10T01:18:22.848Z,100270.22
2022-11-10T01:21:28.538Z,100272.00
2022-11-10T01:24:34.397Z,100275.47
2022-11-10T01:27:39.511Z,100271.06
2022-11-10T01:30:45.197Z,100266.78
2022-11-10T01:33:50.459Z,100277.94
2022-11-10T01:36:55.992Z,100274.47
2022-11-10T01:40:01.641Z,100271.78
2022-11-10T01:43:15.600Z,100254.34
2022-11-10T01:46:29.015Z,100255.97
2022-11-10T01:49:37.367Z,100260.31
2022-11-10T01:52:42.640Z,100270.84
2022-11-10T01:55:30.188Z,100248.28
2022-11-10T01:58:17.605Z,100184.03
2022-11-10T02:01:23.348Z,100264.69
2022-11-10T02:04:33.190Z,100271.59
2022-11-10T02:07:40.397Z,100260.22
2022-11-10T02:10:45.992Z,100264.63
2022-11-10T02:13:51.912Z,100262.94
2022-11-10T02:16:57.556Z,100260.41
2022-11-10T02:20:03.376Z,100260.31
2022-11-10T02:23:08.652Z,100272.56
2022-11-10T02:26:14.048Z,100277.72
2022-11-10T02:29:19.152Z,100278.56
2022-11-10T02:32:24.888Z,100271.69
2022-11-10T02:35:30.438Z,100283.78
2022-11-10T02:38:35.722Z,100282.03
2022-11-10T02:41:41.387Z,100281.16
2022-11-10T02:44:47.035Z,100269.75
2022-11-10T02:47:52.211Z,100242.06
2022-11-10T02:50:58.416Z,100258.34
2022-11-10T02:54:04.008Z,100260.16
2022-11-10T02:57:09.330Z,100269.84
2022-11-10T03:00:14.735Z,100267.25
2022-11-10T03:03:22.398Z,100272.47
2022-11-10T03:06:28.067Z,100285.56
2022-11-10T03:09:33.910Z,100267.94
2022-11-10T03:12:39.236Z,100263.63
2022-11-10T03:15:45.346Z,100251.28
2022-11-10T03:18:50.511Z,100259.13
2022-11-10T03:21:55.915Z,100270.47
2022-11-10T03:25:01.162Z,100289.75
2022-11-10T03:28:06.668Z,100300.22
2022-11-10T03:31:12.268Z,100300.22
2022-11-10T03:34:18.019Z,100291.41
2022-11-10T03:37:23.470Z,100275.94
2022-11-10T03:40:29.696Z,100300.19
2022-11-10T03:43:34.963Z,100280.25
2022-11-10T03:46:43.360Z,100294.00
2022-11-10T03:49:50.451Z,100278.53
2022-11-10T03:52:58.257Z,100293.06
2022-11-10T03:56:03.446Z,100267.16
2022-11-10T03:59:08.738Z,100281.72
2022-11-10T04:02:14.043Z,100291.28
2022-11-10T04:05:17.887Z,100293.00
2022-11-10T04:08:22.020Z,100296.47
2022-11-10T04:11:27.440Z,100297.34
2022-11-10T04:14:32.201Z,100285.91
2022-11-10T04:17:37.564Z,100285.91
2022-11-10T04:20:43.022Z,100283.28
2022-11-10T04:23:51.476Z,100271.00
2022-11-10T04:26:59.875Z,100285.84
2022-11-10T04:30:05.736Z,100284.09
2022-11-10T04:33:14.185Z,100291.06
2022-11-10T04:36:19.937Z,100293.69
2022-11-10T04:39:26.183Z,100298.06
2022-11-10T04:42:31.611Z,100302.41
2022-11-10T04:45:37.304Z,100306.75
2022-11-10T04:48:43.632Z,100306.84
2022-11-10T04:51:57.088Z,100313.75
2022-11-10T04:55:02.527Z,100314.59
2022-11-10T04:58:08.110Z,100312.88
2022-11-10T05:01:13.389Z,100317.22
2022-11-10T05:04:19.005Z,100303.22
2022-11-10T05:07:24.574Z,100303.19
2022-11-10T05:10:30.039Z,100294.38
2022-11-10T05:13:35.418Z,100296.13
2022-11-10T05:16:40.961Z,100301.38
2022-11-10T05:19:46.507Z,100310.09
2022-11-10T05:22:51.980Z,100304.00
2022-11-10T05:26:00.219Z,100317.94
2022-11-10T05:29:05.927Z,100322.38
2022-11-10T05:32:11.812Z,100334.59
2022-11-10T05:34:57.483Z,100330.25
2022-11-10T05:38:04.321Z,100327.56
2022-11-10T05:41:09.739Z,100333.66
2022-11-10T05:44:15.319Z,100330.16
2022-11-10T05:47:21.084Z,100339.81
2022-11-10T05:50:27.415Z,100342.38
2022-11-10T05:53:33.031Z,100350.22
2022-11-10T05:56:38.030Z,100356.34
2022-11-10T05:59:43.475Z,100348.47
2022-11-10T06:02:48.792Z,100358.06
2022-11-10T06:05:55.871Z,100365.97
2022-11-10T06:09:01.509Z,100354.53
2022-11-10T06:12:07.097Z,100360.69
2022-11-10T06:15:12.439Z,100363.28
2022-11-10T06:18:18.281Z,100367.66
2022-11-10T06:21:23.836Z,100377.31
2022-11-10T06:24:30.654Z,100375.50
2022-11-10T06:27:36.053Z,100372.88
2022-11-10T06:30:41.711Z,100379.88
2022-11-10T06:33:47.364Z,100366.25
2022-11-10T06:36:53.032Z,100379.84
2022-11-10T06:39:58.783Z,100378.03
2022-11-10T06:43:04.186Z,100389.44
2022-11-10T06:46:09.631Z,100385.06
2022-11-10T06:49:15.092Z,100386.75
2022-11-10T06:52:20.748Z,100392.03
2022-11-10T06:55:26.430Z,100385.00
2022-11-10T06:58:32.175Z,100370.97
2022-11-10T07:01:37.341Z,100373.69
2022-11-10T07:04:42.978Z,100385.06
2022-11-10T07:07:48.284Z,100392.03
2022-11-10T07:10:55.222Z,100398.16
2022-11-10T07:14:00.767Z,100400.78
2022-11-10T07:17:06.014Z,100406.00
2022-11-10T07:20:11.177Z,100422.63
2022-11-10T07:23:21.324Z,100417.38
2022-11-10T07:26:26.957Z,100419.94
2022-11-10T07:29:32.654Z,100404.34
2022-11-10T07:32:38.255Z,100411.13
2022-11-10T07:35:43.749Z,100410.28
2022-11-10T07:38:49.500Z,100418.03
2022-11-10T07:41:54.908Z,100415.34
2022-11-10T07:45:00.144Z,100416.28
2022-11-10T07:48:05.735Z,100416.31
2022-11-10T07:51:11.359Z,100419.66
2022-11-10T07:54:16.744Z,100418.75
2022-11-10T07:57:22.147Z,100428.41
2022-11-10T08:00:28.483Z,100427.50
2022-11-10T08:03:39.958Z,100424.84
2022-11-10T08:06:45.781Z,100420.56
2022-11-10T08:09:51.325Z,100437.91
2022-11-10T08:12:57.543Z,100437.00
2022-11-10T08:16:03.075Z,100444.84
2022-11-10T08:19:08.611Z,100452.69
2022-11-10T08:22:14.091Z,100446.50
2022-11-10T08:25:19.777Z,100449.09
2022-11-10T08:28:35.091Z,100455.16
2022-11-10T08:31:40.726Z,100455.13
2022-11-10T08:34:46.299Z,100453.34
2022-11-10T08:37:52.053Z,100456.72
2022-11-10T08:40:58.486Z,100469.84
2022-11-10T08:44:06.165Z,100468.97
2022-11-10T08:47:13.306Z,100467.09
2022-11-10T08:50:19.035Z,100471.44
2022-11-10T08:53:26.713Z,100474.91
2022-11-10T08:56:32.294Z,100465.19
2022-11-10T08:59:17.523Z,100470.41
2022-11-10T09:02:23.099Z,100470.38
2022-11-10T09:05:29.108Z,100477.31
2022-11-10T09:08:35.814Z,100490.44
2022-11-10T09:11:41.319Z,100482.59
2022-11-10T09:14:46.693Z,100486.84
2022-11-10T09:17:52.420Z,100497.28
2022-11-10T09:20:58.720Z,100415.50
2022-11-10T09:24:04.015Z,100499.81
2022-11-10T09:27:09.706Z,100504.16
2022-11-10T09:30:17.869Z,100507.66
2022-11-10T09:33:24.332Z,100518.13
2022-11-10T09:36:30.215Z,100516.38
2022-11-10T09:39:35.873Z,100521.66
2022-11-10T09:42:54.860Z,100530.38
2022-11-10T09:46:03.967Z,100523.34
2022-11-10T09:48:59.138Z,100523.56
2022-11-10T09:51:48.429Z,100535.56
2022-11-10T09:54:40.358Z,100543.47
2022-11-10T09:57:27.315Z,100544.38
2022-11-10T10:00:15.701Z,100540.78
2022-11-10T10:03:06.269Z,100550.41
2022-11-10T10:06:02.723Z,100553.84
2022-11-10T10:09:04.116Z,100552.03
2022-11-10T10:12:15.652Z,100557.31
2022-11-10T10:15:09.812Z,100551.13
2022-11-10T10:18:07.127Z,100543.16
2022-11-10T10:21:12.895Z,100557.19
2022-11-10T10:24:13.770Z,100564.19
2022-11-10T10:27:06.290Z,100570.28
2022-11-10T10:29:52.576Z,100564.13
2022-11-10T10:32:38.690Z,100560.59
2022-11-10T10:35:25.143Z,100564.09
2022-11-10T10:38:33.687Z,100565.84
2022-11-10T10:41:25.924Z,100570.22
2022-11-10T10:44:19.684Z,100557.16
2022-11-10T10:47:05.123Z,100568.47
2022-11-10T10:49:50.490Z,100560.56
2022-11-10T10:52:35.928Z,100570.19
2022-11-10T10:55:27.587Z,100567.59
2022-11-10T10:58:47.689Z,100514.03
2022-11-10T11:01:57.362Z,100564.91
2022-11-10T11:05:03.140Z,100573.72
2022-11-10T11:08:20.295Z,100519.47
2022-11-10T11:11:30.979Z,100574.63
2022-11-10T11:14:46.401Z,100488.38
2022-11-10T11:17:51.827Z,100580.81
2022-11-10T11:21:08.182Z,100580.00
2022-11-10T11:24:26.059Z,100580.00
2022-11-10T11:27:38.760Z,100580.03
2022-11-10T11:30:51.443Z,100566.88
2022-11-10T11:34:13.216Z,100580.97
2022-11-10T11:37:43.250Z,100582.72
2022-11-10T11:41:30.113Z,100581.88
2022-11-10T11:44:59.347Z,100593.31
2022-11-10T11:48:39.672Z,100578.44
2022-11-10T11:52:21.918Z,100587.19
2022-11-10T11:56:04.171Z,100595.16
2022-11-10T11:59:20.869Z,100598.63
2022-11-10T12:02:18.532Z,100598.63
2022-11-10T12:05:42.166Z,100602.19
2022-11-10T12:09:01.451Z,100614.44
2022-11-10T12:12:22.870Z,100621.44
2022-11-10T12:16:06.792Z,100619.66
2022-11-10T12:19:27.310Z,100622.28
2022-11-10T12:22:46.260Z,100638.03
2022-11-10T12:25:58.579Z,100588.03
2022-11-10T12:29:21.100Z,100632.78
2022-11-10T12:32:45.956Z,100646.78
2022-11-10T12:35:59.695Z,100659.84
2022-11-10T12:39:13.840Z,100628.16
2022-11-10T12:42:20.288Z,100666.84
2022-11-10T12:45:41.747Z,100666.84
2022-11-10T12:48:58.695Z,100678.19
2022-11-10T12:52:05.234Z,100672.94
2022-11-10T12:55:11.471Z,100644.28
2022-11-10T12:58:17.442Z,100677.25
2022-11-10T13:01:27.243Z,100649.25
2022-11-10T13:04:35.488Z,100669.31
2022-11-10T13:07:44.751Z,100660.47
2022-11-10T13:10:50.906Z,100676.34
2022-11-10T13:14:11.771Z,100680.63
2022-11-10T13:17:17.883Z,100685.03
2022-11-10T13:20:31.309Z,100675.56
2022-11-10T13:24:12.847Z,100615.22
2022-11-10T13:27:45.662Z,100689.41
2022-11-10T13:31:03.553Z,100682.38
2022-11-10T13:34:39.930Z,100679.75
2022-11-10T13:37:53.946Z,100685.03
2022-11-10T13:40:59.475Z,100687.63
2022-11-10T13:44:14.068Z,100674.44
2022-11-10T13:47:28.751Z,100689.31
2022-11-10T13:50:49.027Z,100681.47
2022-11-10T13:54:12.986Z,100665.03
2022-11-10T13:57:24.353Z,100684.06
2022-11-10T14:00:38.419Z,100682.34
2022-11-10T14:04:05.631Z,100677.06
2022-11-10T14:07:16.759Z,100673.50
2022-11-10T14:10:31.921Z,100696.34
2022-11-10T14:13:44.643Z,100699.88
2022-11-10T14:16:52.014Z,100674.38
2022-11-10T14:20:03.844Z,100690.19
2022-11-10T14:23:10.872Z,100683.13
2022-11-10T14:26:22.084Z,100684.94
2022-11-10T14:29:49.305Z,100688.44
2022-11-10T14:32:55.835Z,100690.19
2022-11-10T14:36:21.888Z,100624.75
2022-11-10T14:39:27.869Z,100700.84
2022-11-10T14:42:38.792Z,100649.28
2022-11-10T14:45:49.023Z,100693.97
2022-11-10T14:48:57.650Z,100708.78
2022-11-10T14:52:03.247Z,100693.22
2022-11-10T14:55:09.041Z,100698.28
2022-11-10T14:58:25.749Z,100693.13
2022-11-10T15:01:45.131Z,100693.16
2022-11-10T15:04:53.193Z,100695.81
2022-11-10T15:07:58.623Z,100674.13
2022-11-10T15:11:09.643Z,100650.00
2022-11-10T15:14:15.098Z,100697.66
2022-11-10T15:17:29.519Z,100700.34
2022-11-10T15:20:56.522Z,100687.16
2022-11-10T15:24:03.418Z,100705.59
2022-11-10T15:27:08.940Z,100709.16
2022-11-10T15:30:17.579Z,100717.16
2022-11-10T15:33:29.687Z,100723.34
2022-11-10T15:36:43.224Z,100722.53
2022-11-10T15:39:48.961Z,100744.56
2022-11-10T15:42:54.591Z,100741.19
2022-11-10T15:46:00.797Z,100738.78
2022-11-10T15:49:09.775Z,100734.63
2022-11-10T15:52:21.990Z,100746.88
2022-11-10T15:55:39.749Z,100752.41
2022-11-10T15:58:47.778Z,100746.34
2022-11-10T16:01:53.436Z,100737.66
2022-11-10T16:05:00.119Z,100729.81
2022-11-10T16:08:05.783Z,100726.28
2022-11-10T16:10:53.961Z,100706.41
2022-11-10T16:13:39.981Z,100734.19
2022-11-10T16:16:45.387Z,100725.41
2022-11-10T16:19:50.960Z,100731.53
2022-11-10T16:22:56.087Z,100734.16
2022-11-10T16:26:01.988Z,100742.97
2022-11-10T16:29:08.080Z,100757.75
2022-11-10T16:32:14.184Z,100763.91
2022-11-10T16:35:19.487Z,100764.03
2022-11-10T16:38:37.732Z,100776.19
2022-11-10T16:41:43.477Z,100761.34
2022-11-10T16:44:48.867Z,100743.09
2022-11-10T16:47:54.287Z,100722.03
2022-11-10T16:51:00.089Z,100708.97
2022-11-10T16:54:05.494Z,100712.72
2022-11-10T16:57:10.877Z,100723.50
2022-11-10T17:00:16.064Z,100758.13
2022-11-10T17:03:21.957Z,100755.53
2022-11-10T17:06:31.182Z,100746.84
2022-11-10T17:09:40.845Z,100733.91
2022-11-10T17:12:46.236Z,100742.00
2022-11-10T17:15:52.033Z,100759.53
2022-11-10T17:18:57.789Z,100665.56
2022-11-10T17:22:03.708Z,100763.22
2022-11-10T17:25:16.132Z,100772.13
2022-11-10T17:28:22.210Z,100772.97
2022-11-10T17:31:27.739Z,100775.72
2022-11-10T17:34:33.775Z,100759.06
2022-11-10T17:37:39.208Z,100727.78
2022-11-10T17:40:46.762Z,100732.75
2022-11-10T17:43:52.126Z,100716.06
2022-11-10T17:46:57.767Z,100724.78
2022-11-10T17:50:02.919Z,100725.63
2022-11-10T17:53:09.233Z,100716.81
2022-11-10T17:56:15.190Z,100722.06
2022-11-10T17:59:20.936Z,100715.91
2022-11-10T18:02:26.637Z,100696.59
2022-11-10T18:05:37.243Z,100683.44
2022-11-10T18:08:42.395Z,100682.56
2022-11-10T18:11:48.056Z,100683.38
2022-11-10T18:14:53.869Z,100673.75
2022-11-10T18:18:01.029Z,100672.84
2022-11-10T18:21:06.491Z,100673.72
2022-11-10T18:24:12.411Z,100678.06
2022-11-10T18:27:17.832Z,100673.72
2022-11-10T18:30:25.084Z,100666.63
2022-11-10T18:33:32.455Z,100624.63
2022-11-10T18:36:38.184Z,100693.84
2022-11-10T18:39:43.298Z,100682.41
2022-11-10T18:42:49.386Z,100660.44
2022-11-10T18:45:56.431Z,100653.41
2022-11-10T18:49:02.225Z,100644.66
2022-11-10T18:52:07.835Z,100650.75
2022-11-10T18:55:14.842Z,100657.72
2022-11-10T18:58:19.904Z,100655.03
2022-11-10T19:01:27.352Z,100641.00
2022-11-10T19:04:33.348Z,100586.50
2022-11-10T19:07:39.318Z,100565.94
2022-11-10T19:10:44.458Z,100630.44
2022-11-10T19:13:50.370Z,100640.94
2022-11-10T19:16:56.431Z,100634.78
2022-11-10T19:20:02.168Z,100624.44
2022-11-10T19:23:07.519Z,100643.47
2022-11-10T19:26:23.188Z,100626.00
2022-11-10T19:29:12.735Z,100572.53
2022-11-10T19:31:58.322Z,100617.13
2022-11-10T19:34:43.707Z,100616.22
2022-11-10T19:37:34.215Z,100605.09
2022-11-10T19:40:40.887Z,100599.75
2022-11-10T19:43:47.706Z,100597.75
2022-11-10T19:46:54.443Z,100594.22
2022-11-10T19:50:00.540Z,100574.16
2022-11-10T19:53:06.656Z,100591.53
2022-11-10T19:56:12.013Z,100588.03
2022-11-10T19:59:17.561Z,100571.34
2022-11-10T20:02:23.218Z,100573.06
2022-11-10T20:05:34.794Z,100559.03
2022-11-10T20:08:40.437Z,100538.13
2022-11-10T20:11:47.045Z,100513.16
2022-11-10T20:14:52.695Z,100547.53
2022-11-10T20:17:58.431Z,100535.25
2022-11-10T20:21:04.249Z,100527.34
2022-11-10T20:24:14.645Z,100539.63
2022-11-10T20:27:20.171Z,100530.81
2022-11-10T20:30:26.351Z,100517.66
2022-11-10T20:33:32.333Z,100514.97
2022-11-10T20:36:43.595Z,100435.75
2022-11-10T20:39:49.227Z,100511.47
2022-11-10T20:42:54.905Z,100499.09
2022-11-10T20:46:00.702Z,100501.72
2022-11-10T20:49:07.331Z,100490.34
2022-11-10T20:52:12.972Z,100488.50
2022-11-10T20:55:22.092Z,100458.72
2022-11-10T20:58:36.404Z,100452.59
2022-11-10T21:01:41.738Z,100438.44
2022-11-10T21:04:47.706Z,100422.59
2022-11-10T21:07:53.108Z,100426.97
2022-11-10T21:10:38.882Z,100422.56
2022-11-10T21:13:45.316Z,100428.69
2022-11-10T21:16:31.044Z,100415.47
2022-11-10T21:19:16.587Z,100419.81
2022-11-10T21:22:02.383Z,100416.31
2022-11-10T21:24:48.000Z,100404.81
2022-11-10T21:27:33.364Z,100394.28
2022-11-10T21:30:22.949Z,100387.19
2022-11-10T21:33:08.755Z,100385.41
2022-11-10T21:35:54.210Z,100386.22
2022-11-10T21:38:39.832Z,100373.00
2022-11-10T21:41:26.320Z,100365.06
2022-11-10T21:44:11.883Z,100354.50
2022-11-10T21:46:57.228Z,100345.75
2022-11-10T21:50:02.772Z,100342.13
2022-11-10T21:53:08.615Z,100338.56
2022-11-10T21:56:21.562Z,100321.09
2022-11-10T21:59:26.785Z,100306.00
2022-11-10T22:02:32.271Z,100296.25
2022-11-10T22:05:37.555Z,100294.44
2022-11-10T22:08:43.168Z,100290.06
2022-11-10T22:11:46.498Z,100295.22
2022-11-10T22:14:50.907Z,100273.22
2022-11-10T22:17:54.347Z,100250.50
2022-11-10T22:21:00.033Z,100250.28
2022-11-10T22:24:03.498Z,100239.72
2022-11-10T22:27:10.216Z,100236.16
2022-11-10T22:30:15.394Z,100222.38
2022-11-10T22:33:21.190Z,100230.16
2022-11-10T22:36:31.073Z,100237.72
2022-11-10T22:39:37.550Z,100245.56
2022-11-10T22:42:41.463Z,100188.41
2022-11-10T22:45:46.989Z,100212.06
2022-11-10T22:48:52.967Z,100199.75
2022-11-10T22:51:58.915Z,100197.00
2022-11-10T22:55:04.355Z,100192.69
2022-11-10T22:58:12.155Z,100184.59
2022-11-10T23:01:25.817Z,100185.38
2022-11-10T23:04:31.797Z,100173.88
2022-11-10T23:07:37.347Z,100152.75
2022-11-10T23:10:43.206Z,100149.97
2022-11-10T23:13:48.976Z,100157.69
2022-11-10T23:16:54.983Z,100146.06
2022-11-10T23:20:00.220Z,100145.69
2022-11-10T23:23:05.961Z,100078.91
2022-11-10T23:26:21.824Z,100121.00
2022-11-10T23:29:27.475Z,100121.28
2022-11-10T23:32:32.549Z,100112.03
2022-11-10T23:35:38.247Z,100100.88
2022-11-10T23:38:43.435Z,100091.63
2022-11-10T23:41:49.265Z,100084.16
2022-11-10T23:44:54.597Z,100031.34
2022-11-10T23:48:05.685Z,100081.56
2022-11-10T23:51:12.627Z,100071.38
2022-11-10T23:54:18.633Z,100067.16
2022-11-10T23:57:24.145Z,99964.47
